Homer Airport
PAHO : rendu visible

Aérodrome :











RETROUVEZ-NOUS SUR...

 
LOGIN :

S'inscrire | Disclaimer

   EN    FR    IT 

 









Légende :    VFR   VFR Marginal   IFR   IFR Intensif   IFR Très Intensif
Visi : 
Plafond : 
>= 8 km
>= 3000ft
5 à 8 km
1000 à 3000 ft
1500m à 5 km
500 à 1000 ft
800 à 1500m
200 à 500 ft
< 800m
< 200 ft
Symboles :   Orages  Brouillard  Fortes neiges  Fortes précipitations  Vent > 20 kt






- Altitude de l'aérodrome : 84 ft
- Code IATA : HOM


PAHO - Homer

DERNIER METAR :
  • 180353Z 05005KT 10SM SCT055 M06/M09 A2979 RMK AO2 SLP091 T10611094

METARs EXPIRÉS :
  • 180253Z 06004KT 10SM SCT055 M07/M11 A2980 RMK AO2 SLP094 T10721106 56009
  • 180153Z 03008KT 10SM FEW055 FEW095 M07/M10 A2981 RMK AO2 SLP094 T10671100

TAF PAHO
Valide du 18 à 00h jusqu'au 19 à 00h UTC


172326Z 1800/1824 07006KT P6SM FEW090
FM180200 06012KT P6SM FEW035 BKN050
TEMPO 1805/1809 06012G22KT



MET'MAP, la Météo Aéronautique d'un coup d'oeil ! - Copyright ORBIFLY Décembre 2007 - Disclaimer

ORBIFLY MET'MAP TEAM :

Programmation & Développement : Alexandra Zaïnal
Sur une idée originale de : Baudouin d'Aumeries
Assistance à la programmation : Marc-Olivier Méhu
Soutien technique & logistique : Manuel Goepfert

Contact : metmap@orbifly.com




SOURCES & CREDITS :

   NOAA       Earth
Advisory